Thursday, October 18, 2018, 10:51 AM EDT
Back to Local

KPTW, Pottstown Limerick Airport

Location: Royersford, PA, United States Lat: 40.233
Local Time: 10:51 AM EDT (14:51 GMT) Lon: -75.55
Time Zone: US/Eastern Elev: 291 ft

Show me the last for .
Show Decoded

2018-10-18 09:54 METAR KPTW 181354Z AUTO 32006G15KT 10SM OVC049 06/M03 A3041 RMK AO2 SLP297
                 T00611033 =
2018-10-18 08:54 METAR KPTW 181254Z AUTO 32008KT 10SM OVC050 06/M02 A3039 RMK AO2 SLP288
                 T00611022 =
2018-10-18 07:54 METAR KPTW 181154Z AUTO 25003KT 10SM SCT049 04/M02 A3036 RMK AO2 SLP280
                 T00441022 10061 20022 53021 =
2018-10-18 06:54 METAR KPTW 181054Z AUTO 29004KT 10SM FEW060 04/M03 A3033 RMK AO2 SLP270
                 T00391028 =
2018-10-18 05:54 METAR KPTW 180954Z AUTO 28003KT 10SM BKN060 04/M03 A3032 RMK AO2 SLP265
                 T00441028 =
2018-10-18 04:54 METAR KPTW 180854Z AUTO 31003KT 10SM CLR 03/M03 A3030 RMK AO2 SLP257 T00281028
                 53016 =
2018-10-18 03:54 METAR KPTW 180754Z AUTO 29005KT 10SM CLR 04/M03 A3027 RMK AO2 SLP249 T00441033 =
2018-10-18 02:54 METAR KPTW 180654Z AUTO 31005KT 10SM CLR 05/M03 A3027 RMK AO2 SLP248 T00501033 =
2018-10-18 01:54 METAR KPTW 180554Z AUTO 31008KT 10SM CLR 06/M03 A3025 RMK AO2 SLP242 T00611033
                 10111 20061 51024 =
2018-10-18 00:54 METAR KPTW 180454Z AUTO 31004G14KT 10SM CLR 07/M02 A3023 RMK AO2 SLP234
                 T00671017 401670033 =
2018-10-17 23:54 METAR KPTW 180354Z AUTO 31007G20KT 10SM CLR 08/M01 A3021 RMK AO2 SLP228
                 T00781011 =
2018-10-17 22:54 METAR KPTW 180254Z AUTO 29007G15KT 10SM CLR 08/00 A3018 RMK AO2 SLP217 T00830000
                 51033 =
2018-10-17 21:54 METAR KPTW 180154Z AUTO 30011G25KT 10SM FEW080 09/M01 A3015 RMK AO2 SLP209
                 T00941006 =
2018-10-17 20:54 METAR KPTW 180054Z AUTO 30007G20KT 250V360 10SM SCT075 11/01 A3011 RMK AO2
                 SLP195 T01060006 =
2018-10-17 19:54 METAR KPTW 172354Z AUTO 10SM CLR 11/01 A3008 RMK AO2 SLP185 T01060006 10167
                 20106 53034 =
2018-10-17 18:54 METAR KPTW 172254Z AUTO 30011G20KT 250V320 10SM CLR 12/00 A3005 RMK AO2 PK WND
                 31027/2243 SLP173 T01220000 =
2018-10-17 17:54 METAR KPTW 172154Z AUTO 30012G23KT 10SM CLR 13/01 A3001 RMK AO2 PK WND
                 31027/2056 SLP160 T01280011 =
2018-10-17 16:54 METAR KPTW 172054Z AUTO 30010G23KT 10SM FEW075 14/02 A2998 RMK AO2 PK WND
                 31028/2044 SLP149 T01440017 53007 =
2018-10-17 15:54 METAR KPTW 171954Z AUTO 30012G21KT 10SM SCT065 BKN080 15/02 A2995 RMK AO2 SLP141
                 T01500022 =
2018-10-17 14:54 METAR KPTW 171854Z AUTO 27010G21KT 10SM BKN065 16/03 A2995 RMK AO2 SLP139
                 T01560033 =
2018-10-17 13:54 METAR KPTW 171754Z AUTO 25009G22KT 10SM BKN065 15/03 A2996 RMK AO2 SLP142
                 T01500028 10156 20033 58025 =
2018-10-17 12:54 METAR KPTW 171654Z AUTO 24009G17KT 210V300 10SM CLR 15/03 A2998 RMK AO2 SLP151
                 T01500033 =
2018-10-17 11:54 METAR KPTW 171554Z AUTO 26008KT 10SM CLR 14/04 A3002 RMK AO2 SLP163 T01390039 =
2018-10-17 10:54 METAR KPTW 171454Z AUTO 25010G18KT 9SM CLR 12/03 A3003 RMK AO2 SLP168 T01220028
                 58001 =

Support USWX by starting your Amazon purchase here.